Aviation Digital Data Service (ADDS)

Output produced by METARs form (0324 UTC 21 September 2017)
found at http://www.aviationweather.gov/adds/metars/
 
MBGT 202220Z 2100/2124 03020KT 9000 VCSH SCT018CB BKN220 
     BECMG 2112/2114 02025G35KT 4800 TSRA BKN015CB BKN220
       
MBPV 202220Z 2100/2124 03020KT 9000 VCSH SCT018CB BKN220 
     BECMG 2112/2114 02025G35KT 4800 TSRA BKN015CB BKN220